sensor_id;sensor_type;location;lat;lon;timestamp;pressure;altitude;pressure_sealevel;temperature;humidity
44103;BME280;29769;42.178;24.742;2023-05-23T00:01:52;99353.88;;;12.95;100.00
44103;BME280;29769;42.178;24.742;2023-05-23T00:04:38;99359.50;;;12.84;100.00
44103;BME280;29769;42.178;24.742;2023-05-23T00:07:22;99356.22;;;12.76;100.00
44103;BME280;29769;42.178;24.742;2023-05-23T00:10:07;99354.63;;;12.71;100.00
44103;BME280;29769;42.178;24.742;2023-05-23T00:12:52;99344.94;;;12.71;100.00
44103;BME280;29769;42.178;24.742;2023-05-23T00:15:37;99349.25;;;12.74;100.00
44103;BME280;29769;42.178;24.742;2023-05-23T00:18:21;99355.44;;;12.73;100.00
44103;BME280;29769;42.178;24.742;2023-05-23T00:21:07;99351.16;;;12.69;100.00
44103;BME280;29769;42.178;24.742;2023-05-23T00:23:53;99348.31;;;12.76;100.00
44103;BME280;29769;42.178;24.742;2023-05-23T00:26:38;99342.94;;;12.79;100.00
44103;BME280;29769;42.178;24.742;2023-05-23T00:29:22;99334.88;;;12.84;100.00
44103;BME280;29769;42.178;24.742;2023-05-23T00:32:07;99326.97;;;12.84;100.00
44103;BME280;29769;42.178;24.742;2023-05-23T00:34:51;99332.41;;;12.78;100.00
44103;BME280;29769;42.178;24.742;2023-05-23T00:37:37;99333.41;;;12.74;100.00
44103;BME280;29769;42.178;24.742;2023-05-23T00:40:22;99335.31;;;12.69;100.00
44103;BME280;29769;42.178;24.742;2023-05-23T00:43:06;99335.28;;;12.70;100.00
44103;BME280;29769;42.178;24.742;2023-05-23T00:45:54;99345.47;;;12.82;100.00
44103;BME280;29769;42.178;24.742;2023-05-23T00:48:38;99347.25;;;12.82;100.00
44103;BME280;29769;42.178;24.742;2023-05-23T00:51:24;99345.88;;;12.69;100.00
44103;BME280;29769;42.178;24.742;2023-05-23T00:54:09;99355.94;;;12.56;100.00
44103;BME280;29769;42.178;24.742;2023-05-23T00:56:54;99347.28;;;12.51;100.00
44103;BME280;29769;42.178;24.742;2023-05-23T00:59:39;99343.03;;;12.45;100.00
44103;BME280;29769;42.178;24.742;2023-05-23T01:02:24;99338.81;;;12.40;100.00
44103;BME280;29769;42.178;24.742;2023-05-23T01:05:09;99337.38;;;12.28;100.00
44103;BME280;29769;42.178;24.742;2023-05-23T01:07:54;99329.59;;;12.24;100.00
44103;BME280;29769;42.178;24.742;2023-05-23T01:10:39;99331.28;;;12.26;100.00
44103;BME280;29769;42.178;24.742;2023-05-23T01:13:35;99326.94;;;12.24;100.00
44103;BME280;29769;42.178;24.742;2023-05-23T01:16:28;99329.63;;;12.22;100.00
44103;BME280;29769;42.178;24.742;2023-05-23T01:22:05;99324.19;;;12.28;100.00
44103;BME280;29769;42.178;24.742;2023-05-23T01:24:56;99329.47;;;12.28;100.00
44103;BME280;29769;42.178;24.742;2023-05-23T01:27:54;99328.69;;;12.25;100.00
44103;BME280;29769;42.178;24.742;2023-05-23T01:30:39;99327.03;;;12.21;100.00
44103;BME280;29769;42.178;24.742;2023-05-23T01:33:27;99332.56;;;12.12;100.00
44103;BME280;29769;42.178;24.742;2023-05-23T01:36:12;99322.03;;;12.12;100.00
44103;BME280;29769;42.178;24.742;2023-05-23T01:38:58;99317.63;;;12.12;100.00
44103;BME280;29769;42.178;24.742;2023-05-23T01:41:43;99311.28;;;12.18;100.00
44103;BME280;29769;42.178;24.742;2023-05-23T01:44:27;99319.16;;;12.19;100.00
44103;BME280;29769;42.178;24.742;2023-05-23T01:47:13;99324.34;;;12.22;100.00
44103;BME280;29769;42.178;24.742;2023-05-23T01:49:58;99319.88;;;12.26;100.00
44103;BME280;29769;42.178;24.742;2023-05-23T01:52:44;99324.97;;;12.32;100.00
44103;BME280;29769;42.178;24.742;2023-05-23T01:55:30;99323.13;;;12.35;100.00
44103;BME280;29769;42.178;24.742;2023-05-23T01:58:14;99323.28;;;12.29;100.00
44103;BME280;29769;42.178;24.742;2023-05-23T02:00:59;99321.28;;;12.07;100.00
44103;BME280;29769;42.178;24.742;2023-05-23T02:03:44;99327.81;;;11.92;100.00
44103;BME280;29769;42.178;24.742;2023-05-23T02:06:28;99328.81;;;11.88;100.00
44103;BME280;29769;42.178;24.742;2023-05-23T02:09:12;99320.06;;;11.86;100.00
44103;BME280;29769;42.178;24.742;2023-05-23T02:11:57;99317.28;;;11.92;100.00
44103;BME280;29769;42.178;24.742;2023-05-23T02:14:43;99316.28;;;11.96;100.00
44103;BME280;29769;42.178;24.742;2023-05-23T02:17:28;99319.09;;;11.90;100.00
44103;BME280;29769;42.178;24.742;2023-05-23T02:20:12;99314.97;;;11.80;100.00
44103;BME280;29769;42.178;24.742;2023-05-23T02:22:57;99314.22;;;11.75;100.00
44103;BME280;29769;42.178;24.742;2023-05-23T02:25:41;99310.59;;;11.79;100.00
44103;BME280;29769;42.178;24.742;2023-05-23T02:28:26;99318.38;;;11.83;100.00
44103;BME280;29769;42.178;24.742;2023-05-23T02:31:10;99320.94;;;11.86;100.00
44103;BME280;29769;42.178;24.742;2023-05-23T02:33:55;99317.44;;;11.86;100.00
44103;BME280;29769;42.178;24.742;2023-05-23T02:36:40;99320.94;;;11.86;100.00
44103;BME280;29769;42.178;24.742;2023-05-23T02:39:25;99328.03;;;11.84;100.00
44103;BME280;29769;42.178;24.742;2023-05-23T02:42:10;99326.31;;;11.82;100.00
44103;BME280;29769;42.178;24.742;2023-05-23T02:44:55;99320.25;;;11.80;100.00
44103;BME280;29769;42.178;24.742;2023-05-23T02:47:40;99311.47;;;11.79;100.00
44103;BME280;29769;42.178;24.742;2023-05-23T02:50:26;99309.00;;;11.72;100.00
44103;BME280;29769;42.178;24.742;2023-05-23T02:53:11;99316.97;;;11.69;100.00
44103;BME280;29769;42.178;24.742;2023-05-23T02:55:55;99315.13;;;11.74;100.00
44103;BME280;29769;42.178;24.742;2023-05-23T02:58:40;99311.78;;;11.66;100.00
44103;BME280;29769;42.178;24.742;2023-05-23T03:01:25;99310.91;;;11.67;100.00
44103;BME280;29769;42.178;24.742;2023-05-23T03:04:10;99306.28;;;11.76;100.00
44103;BME280;29769;42.178;24.742;2023-05-23T03:06:54;99304.44;;;11.80;100.00
44103;BME280;29769;42.178;24.742;2023-05-23T03:09:39;99311.22;;;11.88;100.00
44103;BME280;29769;42.178;24.742;2023-05-23T03:12:24;99317.25;;;11.93;100.00
44103;BME280;29769;42.178;24.742;2023-05-23T03:15:09;99314.53;;;11.96;100.00
44103;BME280;29769;42.178;24.742;2023-05-23T03:17:56;99315.41;;;11.95;100.00
44103;BME280;29769;42.178;24.742;2023-05-23T03:20:41;99313.84;;;11.90;100.00
44103;BME280;29769;42.178;24.742;2023-05-23T03:23:25;99283.56;;;11.71;100.00
44103;BME280;29769;42.178;24.742;2023-05-23T03:26:10;99318.28;;;11.88;100.00
44103;BME280;29769;42.178;24.742;2023-05-23T03:28:55;99320.03;;;11.87;100.00
44103;BME280;29769;42.178;24.742;2023-05-23T03:31:39;99318.13;;;11.94;100.00
44103;BME280;29769;42.178;24.742;2023-05-23T03:34:24;99313.66;;;11.96;100.00
44103;BME280;29769;42.178;24.742;2023-05-23T03:37:09;99313.50;;;12.02;100.00
44103;BME280;29769;42.178;24.742;2023-05-23T03:39:54;99315.09;;;12.08;100.00
44103;BME280;29769;42.178;24.742;2023-05-23T03:42:39;99307.22;;;12.06;100.00
44103;BME280;29769;42.178;24.742;2023-05-23T03:45:26;99317.78;;;12.06;100.00
44103;BME280;29769;42.178;24.742;2023-05-23T03:48:11;99314.31;;;12.04;100.00
44103;BME280;29769;42.178;24.742;2023-05-23T03:50:57;99316.81;;;12.09;100.00
44103;BME280;29769;42.178;24.742;2023-05-23T03:53:42;99314.75;;;12.20;100.00
44103;BME280;29769;42.178;24.742;2023-05-23T03:56:27;99310.06;;;12.31;100.00
44103;BME280;29769;42.178;24.742;2023-05-23T03:59:12;99309.75;;;12.41;100.00
44103;BME280;29769;42.178;24.742;2023-05-23T04:01:56;99311.47;;;12.42;100.00
44103;BME280;29769;42.178;24.742;2023-05-23T04:04:42;99307.72;;;12.49;100.00
44103;BME280;29769;42.178;24.742;2023-05-23T04:07:27;99309.97;;;12.63;100.00
44103;BME280;29769;42.178;24.742;2023-05-23T04:10:11;99313.94;;;12.78;100.00
44103;BME280;29769;42.178;24.742;2023-05-23T04:12:56;99319.63;;;12.93;100.00
44103;BME280;29769;42.178;24.742;2023-05-23T04:15:42;99326.88;;;13.16;100.00
44103;BME280;29769;42.178;24.742;2023-05-23T04:18:29;99321.06;;;13.31;100.00
44103;BME280;29769;42.178;24.742;2023-05-23T04:21:13;99322.50;;;13.42;100.00
44103;BME280;29769;42.178;24.742;2023-05-23T04:24:07;99323.84;;;13.55;100.00
44103;BME280;29769;42.178;24.742;2023-05-23T04:26:52;99329.38;;;13.73;100.00
44103;BME280;29769;42.178;24.742;2023-05-23T04:29:39;99333.09;;;13.94;100.00
44103;BME280;29769;42.178;24.742;2023-05-23T04:32:24;99323.56;;;14.13;100.00
44103;BME280;29769;42.178;24.742;2023-05-23T04:35:09;99331.00;;;14.27;100.00
44103;BME280;29769;42.178;24.742;2023-05-23T04:37:57;99331.66;;;14.34;100.00
44103;BME280;29769;42.178;24.742;2023-05-23T04:40:44;99327.03;;;14.40;100.00
44103;BME280;29769;42.178;24.742;2023-05-23T04:43:35;99336.19;;;14.55;100.00
44103;BME280;29769;42.178;24.742;2023-05-23T04:46:48;99334.91;;;14.66;100.00
44103;BME280;29769;42.178;24.742;2023-05-23T04:49:36;99336.06;;;14.81;100.00
44103;BME280;29769;42.178;24.742;2023-05-23T04:52:21;99334.63;;;14.96;100.00
44103;BME280;29769;42.178;24.742;2023-05-23T04:55:06;99342.00;;;15.11;100.00
44103;BME280;29769;42.178;24.742;2023-05-23T04:57:53;99335.25;;;15.26;100.00
44103;BME280;29769;42.178;24.742;2023-05-23T05:00:38;99339.59;;;15.27;100.00
44103;BME280;29769;42.178;24.742;2023-05-23T05:03:23;99335.25;;;15.26;100.00
44103;BME280;29769;42.178;24.742;2023-05-23T05:06:09;99332.94;;;15.38;100.00
44103;BME280;29769;42.178;24.742;2023-05-23T05:08:53;99336.00;;;15.51;100.00
44103;BME280;29769;42.178;24.742;2023-05-23T05:11:39;99337.88;;;15.69;100.00
44103;BME280;29769;42.178;24.742;2023-05-23T05:14:24;99347.00;;;15.84;100.00
44103;BME280;29769;42.178;24.742;2023-05-23T05:17:10;99337.59;;;15.97;100.00
44103;BME280;29769;42.178;24.742;2023-05-23T05:20:08;99346.81;;;16.09;100.00
44103;BME280;29769;42.178;24.742;2023-05-23T05:22:56;99346.88;;;16.07;100.00
44103;BME280;29769;42.178;24.742;2023-05-23T05:25:41;99348.97;;;15.99;100.00
44103;BME280;29769;42.178;24.742;2023-05-23T05:28:25;99351.63;;;15.99;100.00
44103;BME280;29769;42.178;24.742;2023-05-23T05:31:11;99351.00;;;15.94;100.00
44103;BME280;29769;42.178;24.742;2023-05-23T05:33:58;99360.75;;;15.93;100.00
44103;BME280;29769;42.178;24.742;2023-05-23T05:36:44;99364.97;;;15.97;100.00
44103;BME280;29769;42.178;24.742;2023-05-23T05:39:33;99367.25;;;16.07;100.00
44103;BME280;29769;42.178;24.742;2023-05-23T05:42:18;99358.03;;;16.15;100.00
44103;BME280;29769;42.178;24.742;2023-05-23T05:45:03;99354.09;;;16.24;100.00
44103;BME280;29769;42.178;24.742;2023-05-23T05:47:50;99356.09;;;16.39;100.00
44103;BME280;29769;42.178;24.742;2023-05-23T05:50:37;99355.28;;;16.57;100.00
44103;BME280;29769;42.178;24.742;2023-05-23T05:53:23;99356.50;;;16.89;100.00
44103;BME280;29769;42.178;24.742;2023-05-23T05:56:07;99353.97;;;17.23;100.00
44103;BME280;29769;42.178;24.742;2023-05-23T05:58:53;99350.16;;;17.48;100.00
44103;BME280;29769;42.178;24.742;2023-05-23T06:01:39;99353.97;;;17.61;100.00
44103;BME280;29769;42.178;24.742;2023-05-23T06:04:24;99352.59;;;17.52;100.00
44103;BME280;29769;42.178;24.742;2023-05-23T06:07:09;99358.84;;;17.51;100.00
44103;BME280;29769;42.178;24.742;2023-05-23T06:09:53;99363.88;;;17.57;100.00
44103;BME280;29769;42.178;24.742;2023-05-23T06:12:37;99363.06;;;17.74;100.00
44103;BME280;29769;42.178;24.742;2023-05-23T06:15:22;99353.84;;;17.98;100.00
44103;BME280;29769;42.178;24.742;2023-05-23T06:18:07;99353.69;;;18.01;100.00
44103;BME280;29769;42.178;24.742;2023-05-23T06:20:54;99350.25;;;18.16;100.00
44103;BME280;29769;42.178;24.742;2023-05-23T06:23:40;99358.44;;;18.46;100.00
44103;BME280;29769;42.178;24.742;2023-05-23T06:26:24;99355.31;;;18.55;100.00
44103;BME280;29769;42.178;24.742;2023-05-23T06:29:11;99360.78;;;18.70;100.00
44103;BME280;29769;42.178;24.742;2023-05-23T06:31:56;99357.06;;;18.72;100.00
44103;BME280;29769;42.178;24.742;2023-05-23T06:34:42;99353.31;;;18.76;100.00
44103;BME280;29769;42.178;24.742;2023-05-23T06:37:26;99353.63;;;19.03;100.00
44103;BME280;29769;42.178;24.742;2023-05-23T06:40:11;99352.50;;;19.23;100.00
44103;BME280;29769;42.178;24.742;2023-05-23T06:42:57;99348.66;;;19.28;100.00
44103;BME280;29769;42.178;24.742;2023-05-23T06:45:50;99345.38;;;19.39;100.00
44103;BME280;29769;42.178;24.742;2023-05-23T06:48:35;99347.56;;;19.48;100.00
44103;BME280;29769;42.178;24.742;2023-05-23T06:51:20;99348.81;;;19.72;100.00
44103;BME280;29769;42.178;24.742;2023-05-23T06:54:04;99342.41;;;19.90;100.00
44103;BME280;29769;42.178;24.742;2023-05-23T06:56:49;99338.63;;;20.09;100.00
44103;BME280;29769;42.178;24.742;2023-05-23T06:59:34;99335.13;;;20.38;100.00
44103;BME280;29769;42.178;24.742;2023-05-23T07:02:18;99328.47;;;20.15;100.00
44103;BME280;29769;42.178;24.742;2023-05-23T07:05:03;99334.72;;;20.30;100.00
44103;BME280;29769;42.178;24.742;2023-05-23T07:08:03;99333.47;;;20.35;100.00
44103;BME280;29769;42.178;24.742;2023-05-23T07:10:48;99330.06;;;20.48;100.00
44103;BME280;29769;42.178;24.742;2023-05-23T07:13:48;99292.03;;;20.14;100.00
44103;BME280;29769;42.178;24.742;2023-05-23T07:16:40;99329.00;;;20.36;100.00
44103;BME280;29769;42.178;24.742;2023-05-23T07:19:26;99321.13;;;20.49;100.00
44103;BME280;29769;42.178;24.742;2023-05-23T07:22:10;99326.94;;;20.83;100.00
44103;BME280;29769;42.178;24.742;2023-05-23T07:24:57;99326.81;;;20.99;100.00
44103;BME280;29769;42.178;24.742;2023-05-23T07:27:47;99321.28;;;20.88;100.00
44103;BME280;29769;42.178;24.742;2023-05-23T07:30:32;99323.56;;;20.94;100.00
44103;BME280;29769;42.178;24.742;2023-05-23T07:33:17;99319.06;;;21.09;100.00
44103;BME280;29769;42.178;24.742;2023-05-23T07:36:03;99317.59;;;21.32;100.00
44103;BME280;29769;42.178;24.742;2023-05-23T07:38:48;99318.00;;;21.66;96.29
44103;BME280;29769;42.178;24.742;2023-05-23T07:41:32;99313.06;;;21.73;83.19
44103;BME280;29769;42.178;24.742;2023-05-23T07:44:17;99312.03;;;22.15;87.40
44103;BME280;29769;42.178;24.742;2023-05-23T07:47:02;99310.31;;;22.14;85.94
44103;BME280;29769;42.178;24.742;2023-05-23T07:49:48;99307.44;;;22.42;85.19
44103;BME280;29769;42.178;24.742;2023-05-23T07:52:35;99310.84;;;22.95;86.13
44103;BME280;29769;42.178;24.742;2023-05-23T07:55:23;99311.66;;;23.21;76.66
44103;BME280;29769;42.178;24.742;2023-05-23T07:58:07;99312.38;;;23.59;74.09
44103;BME280;29769;42.178;24.742;2023-05-23T08:00:52;99301.25;;;24.11;67.02
44103;BME280;29769;42.178;24.742;2023-05-23T08:03:57;99300.28;;;24.69;64.10
44103;BME280;29769;42.178;24.742;2023-05-23T08:06:52;99306.63;;;24.68;57.19
44103;BME280;29769;42.178;24.742;2023-05-23T08:09:39;99298.91;;;25.31;56.20
44103;BME280;29769;42.178;24.742;2023-05-23T08:12:25;99298.78;;;25.43;58.26
44103;BME280;29769;42.178;24.742;2023-05-23T08:15:17;99297.00;;;24.88;60.68
44103;BME280;29769;42.178;24.742;2023-05-23T08:18:08;99303.38;;;24.19;64.54
44103;BME280;29769;42.178;24.742;2023-05-23T08:20:52;99309.50;;;24.21;61.10
44103;BME280;29769;42.178;24.742;2023-05-23T08:23:37;99297.69;;;24.46;60.40
44103;BME280;29769;42.178;24.742;2023-05-23T08:26:22;99299.66;;;24.55;57.01
44103;BME280;29769;42.178;24.742;2023-05-23T08:29:08;99296.75;;;24.80;54.36
44103;BME280;29769;42.178;24.742;2023-05-23T08:31:54;99287.69;;;25.26;54.00
44103;BME280;29769;42.178;24.742;2023-05-23T08:34:39;99290.50;;;25.67;54.32
44103;BME280;29769;42.178;24.742;2023-05-23T08:37:23;99293.38;;;25.86;50.52
44103;BME280;29769;42.178;24.742;2023-05-23T08:40:08;99285.56;;;26.04;50.94
44103;BME280;29769;42.178;24.742;2023-05-23T08:43:03;99278.16;;;26.38;49.49
44103;BME280;29769;42.178;24.742;2023-05-23T08:45:48;99282.25;;;26.32;49.25
44103;BME280;29769;42.178;24.742;2023-05-23T08:48:34;99281.50;;;26.30;48.34
44103;BME280;29769;42.178;24.742;2023-05-23T08:51:22;99283.69;;;26.36;47.84
44103;BME280;29769;42.178;24.742;2023-05-23T08:54:09;99287.47;;;26.54;49.65
44103;BME280;29769;42.178;24.742;2023-05-23T08:56:56;99283.16;;;26.42;45.10
44103;BME280;29769;42.178;24.742;2023-05-23T08:59:42;99284.75;;;26.24;42.50
44103;BME280;29769;42.178;24.742;2023-05-23T09:02:28;99284.19;;;26.09;42.55
44103;BME280;29769;42.178;24.742;2023-05-23T09:05:22;99288.91;;;26.28;44.36
44103;BME280;29769;42.178;24.742;2023-05-23T09:08:07;99282.59;;;26.48;43.95
44103;BME280;29769;42.178;24.742;2023-05-23T09:10:52;99271.84;;;27.09;41.61
44103;BME280;29769;42.178;24.742;2023-05-23T09:13:39;99274.66;;;27.67;40.39
44103;BME280;29769;42.178;24.742;2023-05-23T09:16:31;99276.84;;;28.58;38.60
44103;BME280;29769;42.178;24.742;2023-05-23T09:19:17;99263.44;;;29.30;38.02
44103;BME280;29769;42.178;24.742;2023-05-23T09:22:08;99272.81;;;29.08;39.13
44103;BME280;29769;42.178;24.742;2023-05-23T09:25:02;99272.31;;;29.50;38.88
44103;BME280;29769;42.178;24.742;2023-05-23T09:27:46;99263.91;;;30.75;36.45
44103;BME280;29769;42.178;24.742;2023-05-23T09:30:32;99264.34;;;31.47;35.13
44103;BME280;29769;42.178;24.742;2023-05-23T09:33:17;99259.53;;;31.24;34.26
44103;BME280;29769;42.178;24.742;2023-05-23T09:36:02;99260.06;;;30.60;34.34
44103;BME280;29769;42.178;24.742;2023-05-23T09:38:47;99264.84;;;29.97;36.52
44103;BME280;29769;42.178;24.742;2023-05-23T09:41:35;99263.47;;;29.93;35.58
44103;BME280;29769;42.178;24.742;2023-05-23T09:44:21;99270.25;;;29.62;35.12
44103;BME280;29769;42.178;24.742;2023-05-23T09:47:06;99260.88;;;29.91;35.25
44103;BME280;29769;42.178;24.742;2023-05-23T09:49:50;99275.34;;;29.82;35.16
44103;BME280;29769;42.178;24.742;2023-05-23T09:52:35;99272.25;;;29.77;34.28
44103;BME280;29769;42.178;24.742;2023-05-23T09:55:21;99258.84;;;29.76;34.44
44103;BME280;29769;42.178;24.742;2023-05-23T09:58:06;99260.25;;;29.80;33.40
44103;BME280;29769;42.178;24.742;2023-05-23T10:00:52;99252.94;;;30.59;33.23
44103;BME280;29769;42.178;24.742;2023-05-23T10:03:50;99262.25;;;30.90;32.26
44103;BME280;29769;42.178;24.742;2023-05-23T10:06:43;99260.25;;;30.92;31.94
44103;BME280;29769;42.178;24.742;2023-05-23T10:09:35;99254.75;;;31.18;32.72
44103;BME280;29769;42.178;24.742;2023-05-23T10:12:37;99253.25;;;31.24;32.08
44103;BME280;29769;42.178;24.742;2023-05-23T10:15:23;99253.50;;;31.55;31.26
44103;BME280;29769;42.178;24.742;2023-05-23T10:18:16;99252.69;;;31.62;30.58
44103;BME280;29769;42.178;24.742;2023-05-23T10:21:06;99249.75;;;31.48;31.92
44103;BME280;29769;42.178;24.742;2023-05-23T10:23:52;99259.56;;;31.32;31.18
44103;BME280;29769;42.178;24.742;2023-05-23T10:26:37;99252.72;;;30.35;32.60
44103;BME280;29769;42.178;24.742;2023-05-23T10:29:22;99260.94;;;29.64;34.06
44103;BME280;29769;42.178;24.742;2023-05-23T10:32:07;99252.56;;;30.11;33.50
44103;BME280;29769;42.178;24.742;2023-05-23T10:35:02;99247.50;;;30.33;33.09
44103;BME280;29769;42.178;24.742;2023-05-23T10:40:49;99241.94;;;32.58;29.91
44103;BME280;29769;42.178;24.742;2023-05-23T10:46:50;99231.31;;;34.92;26.42
44103;BME280;29769;42.178;24.742;2023-05-23T10:49:36;99235.09;;;36.20;25.14
44103;BME280;29769;42.178;24.742;2023-05-23T10:52:22;99232.47;;;36.61;24.43
44103;BME280;29769;42.178;24.742;2023-05-23T10:55:14;99227.69;;;37.78;23.71
44103;BME280;29769;42.178;24.742;2023-05-23T11:00:55;99233.94;;;39.17;22.88
44103;BME280;29769;42.178;24.742;2023-05-23T11:06:32;99227.53;;;40.79;21.68
44103;BME280;29769;42.178;24.742;2023-05-23T11:09:17;99230.47;;;41.51;20.32
44103;BME280;29769;42.178;24.742;2023-05-23T11:12:02;99234.69;;;40.37;21.27
44103;BME280;29769;42.178;24.742;2023-05-23T11:17:32;99231.13;;;40.06;21.23
44103;BME280;29769;42.178;24.742;2023-05-23T11:20:18;99238.47;;;39.87;21.55
44103;BME280;29769;42.178;24.742;2023-05-23T11:23:06;99234.19;;;39.08;21.61
44103;BME280;29769;42.178;24.742;2023-05-23T11:25:51;99233.09;;;37.45;23.39
44103;BME280;29769;42.178;24.742;2023-05-23T11:28:54;99234.72;;;36.30;24.70
44103;BME280;29769;42.178;24.742;2023-05-23T11:31:38;99229.44;;;35.79;24.58
44103;BME280;29769;42.178;24.742;2023-05-23T11:34:26;99229.50;;;36.63;24.30
44103;BME280;29769;42.178;24.742;2023-05-23T11:37:11;99230.25;;;36.78;24.25
44103;BME280;29769;42.178;24.742;2023-05-23T11:39:56;99230.59;;;36.13;24.96
44103;BME280;29769;42.178;24.742;2023-05-23T11:42:41;99236.25;;;36.60;24.93
44103;BME280;29769;42.178;24.742;2023-05-23T11:45:27;99231.81;;;37.41;23.86
44103;BME280;29769;42.178;24.742;2023-05-23T11:48:12;99236.00;;;35.49;24.66
44103;BME280;29769;42.178;24.742;2023-05-23T11:50:57;99235.97;;;36.27;24.84
44103;BME280;29769;42.178;24.742;2023-05-23T11:53:42;99230.13;;;33.60;28.31
44103;BME280;29769;42.178;24.742;2023-05-23T11:56:26;99239.75;;;32.61;29.54
44103;BME280;29769;42.178;24.742;2023-05-23T11:59:11;99238.81;;;32.14;30.09
44103;BME280;29769;42.178;24.742;2023-05-23T12:01:55;99230.69;;;32.77;29.56
44103;BME280;29769;42.178;24.742;2023-05-23T12:04:40;99235.38;;;31.96;30.42
44103;BME280;29769;42.178;24.742;2023-05-23T12:07:24;99234.06;;;32.87;28.44
44103;BME280;29769;42.178;24.742;2023-05-23T12:10:09;99214.47;;;33.53;32.22
44103;BME280;29769;42.178;24.742;2023-05-23T12:12:54;99223.34;;;31.16;37.52
44103;BME280;29769;42.178;24.742;2023-05-23T12:15:39;99222.50;;;30.04;39.43
44103;BME280;29769;42.178;24.742;2023-05-23T12:18:27;99228.59;;;29.98;40.46
44103;BME280;29769;42.178;24.742;2023-05-23T12:21:12;99219.81;;;29.33;41.61
44103;BME280;29769;42.178;24.742;2023-05-23T12:23:57;99219.88;;;29.77;40.45
44103;BME280;29769;42.178;24.742;2023-05-23T12:26:54;99217.84;;;30.40;38.26
44103;BME280;29769;42.178;24.742;2023-05-23T12:29:41;99220.09;;;30.19;37.32
44103;BME280;29769;42.178;24.742;2023-05-23T12:32:25;99207.66;;;29.37;38.59
44103;BME280;29769;42.178;24.742;2023-05-23T12:35:11;99211.69;;;29.33;38.60
44103;BME280;29769;42.178;24.742;2023-05-23T12:38:04;99200.22;;;29.92;39.41
44103;BME280;29769;42.178;24.742;2023-05-23T12:41:06;99207.19;;;29.77;38.26
44103;BME280;29769;42.178;24.742;2023-05-23T12:43:51;99194.00;;;29.82;37.44
44103;BME280;29769;42.178;24.742;2023-05-23T12:46:36;99180.31;;;29.48;37.94
44103;BME280;29769;42.178;24.742;2023-05-23T12:49:21;99190.97;;;29.85;37.40
44103;BME280;29769;42.178;24.742;2023-05-23T12:52:05;99186.16;;;29.89;37.53
44103;BME280;29769;42.178;24.742;2023-05-23T12:54:50;99179.75;;;29.80;37.86
44103;BME280;29769;42.178;24.742;2023-05-23T12:57:35;99179.28;;;30.54;35.92
44103;BME280;29769;42.178;24.742;2023-05-23T13:00:20;99174.22;;;30.08;36.27
44103;BME280;29769;42.178;24.742;2023-05-23T13:03:04;99175.56;;;29.86;37.55
44103;BME280;29769;42.178;24.742;2023-05-23T13:05:50;99176.22;;;29.80;38.02
44103;BME280;29769;42.178;24.742;2023-05-23T13:08:35;99172.75;;;29.52;38.23
44103;BME280;29769;42.178;24.742;2023-05-23T13:11:19;99178.22;;;29.07;39.61
44103;BME280;29769;42.178;24.742;2023-05-23T13:14:06;99173.59;;;29.70;38.36
44103;BME280;29769;42.178;24.742;2023-05-23T13:16:51;99183.03;;;29.84;37.98
44103;BME280;29769;42.178;24.742;2023-05-23T13:19:35;99184.06;;;29.47;39.11
44103;BME280;29769;42.178;24.742;2023-05-23T13:22:20;99175.91;;;30.09;37.91
44103;BME280;29769;42.178;24.742;2023-05-23T13:25:05;99182.25;;;29.91;37.65
44103;BME280;29769;42.178;24.742;2023-05-23T13:27:52;99178.78;;;30.33;36.47
44103;BME280;29769;42.178;24.742;2023-05-23T13:30:36;99171.41;;;30.43;36.45
44103;BME280;29769;42.178;24.742;2023-05-23T13:33:21;99169.38;;;30.19;36.50
44103;BME280;29769;42.178;24.742;2023-05-23T13:36:06;99163.91;;;29.68;36.61
44103;BME280;29769;42.178;24.742;2023-05-23T13:38:51;99159.38;;;29.94;37.04
44103;BME280;29769;42.178;24.742;2023-05-23T13:41:35;99155.38;;;29.27;38.04
44103;BME280;29769;42.178;24.742;2023-05-23T13:44:20;99163.63;;;29.08;38.52
44103;BME280;29769;42.178;24.742;2023-05-23T13:47:08;99160.78;;;29.98;36.08
44103;BME280;29769;42.178;24.742;2023-05-23T13:49:53;99161.03;;;29.69;37.26
44103;BME280;29769;42.178;24.742;2023-05-23T13:52:37;99156.00;;;29.92;35.43
44103;BME280;29769;42.178;24.742;2023-05-23T13:55:22;99161.94;;;29.95;35.18
44103;BME280;29769;42.178;24.742;2023-05-23T13:58:07;99170.78;;;29.80;36.43
44103;BME280;29769;42.178;24.742;2023-05-23T14:00:51;99170.50;;;30.09;36.82
44103;BME280;29769;42.178;24.742;2023-05-23T14:03:36;99168.75;;;30.25;34.92
44103;BME280;29769;42.178;24.742;2023-05-23T14:06:21;99174.59;;;30.72;35.26
44103;BME280;29769;42.178;24.742;2023-05-23T14:09:05;99174.84;;;30.87;34.87
44103;BME280;29769;42.178;24.742;2023-05-23T14:11:51;99187.13;;;30.39;35.17
44103;BME280;29769;42.178;24.742;2023-05-23T14:14:35;99185.81;;;30.18;36.18
44103;BME280;29769;42.178;24.742;2023-05-23T14:17:20;99188.09;;;29.61;37.76
44103;BME280;29769;42.178;24.742;2023-05-23T14:20:04;99171.06;;;28.88;40.10
44103;BME280;29769;42.178;24.742;2023-05-23T14:22:50;99203.03;;;28.75;41.75
44103;BME280;29769;42.178;24.742;2023-05-23T14:25:34;99212.53;;;28.52;42.88
44103;BME280;29769;42.178;24.742;2023-05-23T14:28:19;99210.88;;;28.22;44.55
44103;BME280;29769;42.178;24.742;2023-05-23T14:31:04;99221.47;;;27.67;45.72
44103;BME280;29769;42.178;24.742;2023-05-23T14:33:49;99214.59;;;27.44;47.46
44103;BME280;29769;42.178;24.742;2023-05-23T14:36:34;99209.38;;;27.42;47.87
44103;BME280;29769;42.178;24.742;2023-05-23T14:39:20;99214.03;;;27.40;48.20
44103;BME280;29769;42.178;24.742;2023-05-23T14:42:05;99214.44;;;27.26;48.93